Flight Track Log - Related Links

Times and Time Zones

All times are in EDT time to prevent confusion due to time zone crossing. See the SKW4968 flight status page for this flight to view local times or setup timezone preferences in your user account.

Time Position Orientation Groundspeed Altitude Reporting Facility
EDT Latitude Longitude Course Direction KTS MPH feet Rate Location/Type
Tue 09:48:11 AM 29.9578 -95.3464 261° West 161 185 1,000  Level Houston Center
Tue 09:49:24 AM 29.9475 -95.4175 261° West 251 289 3,300 1,593 Climbing Houston Center
Tue 09:50:04 AM 29.9536 -95.4650 278° West 251 289 4,000 1,515 Climbing Houston Center
Tue 09:51:07 AM 29.9606 -95.5492 275° West 263 303 5,900 2,208 Climbing Houston Center
Tue 09:52:09 AM 29.9569 -95.6400 267° West 280 322 8,600 2,468 Climbing Houston Center
Tue 09:53:11 AM 29.9517 -95.7581 267° West 306 352 11,000 2,177 Climbing Houston Center
Tue 09:54:13 AM 29.9489 -95.8700 268° West 347 399 13,100 2,129 Climbing Houston Center
Tue 09:55:15 AM 29.9442 -95.9850 267° West 359 413 15,400 2,032 Climbing Houston Center
Tue 09:56:17 AM 29.9397 -96.1175 268° West 371 427 17,300 1,694 Climbing Houston Center
Tue 09:57:19 AM 29.9461 -96.2411 273° West 393 452 18,900 1,306 Climbing Houston Center
Tue 09:58:21 AM 29.9664 -96.3675 281° West 403 464 20,000 240 Climbing Houston Center
Tue 09:59:24 AM 29.9883 -96.4983 281° West 419 482 19,400 -1,536 Descending Houston Center
Tue 10:00:26 AM 30.0097 -96.6264 281° West 412 474 16,800 -2,855 Descending Houston Center
Tue 10:01:28 AM 30.0336 -96.7728 281° West 391 450 13,500 -2,323 Descending Houston Center
Tue 10:02:30 AM 30.0539 -96.8861 282° West 370 426 12,000 -774 Descending Houston Center
Tue 10:03:32 AM 30.0864 -96.9928 289° West 357 411 11,900 -484 Descending Houston Center
Tue 10:04:34 AM 30.1300 -97.0894 298° West 341 392 11,000 -1,113 Descending Houston Center
Tue 10:05:36 AM 30.1772 -97.1703 304° West 305 351 9,600 -1,597 Descending Houston Center
Tue 10:06:38 AM 30.2281 -97.2619 303° West 289 333 7,700 -1,728 Descending Houston Center
Tue 10:07:41 AM 30.2703 -97.3383 303° West 281 323 6,000 -1,584 Descending Houston Center
Tue 10:08:43 AM 30.3131 -97.4158 303° West 281 323 4,400 -1,016 Descending Houston Center
Tue 10:09:45 AM 30.3550 -97.4919 303° West 279 321 3,900 -871 Descending Houston Center
Tue 10:10:47 AM 30.3658 -97.5736 279° West 259 298 2,600 -677 Descending Houston Center
Tue 10:11:49 AM 30.3700 -97.6508 274° West 240 276 2,500 -48 Descending Houston Center
Tue 10:12:51 AM 30.3278 -97.6642 195° South 180 207 2,500  Level Houston Center

Login

Don't have an account? Register now (free) for customized features, flight alerts, and more!